createdAt,value
2023-06-28T00:02:11.902Z,3.53
2023-06-28T00:04:38.827Z,3.17
2023-06-28T00:07:12.281Z,3.45
2023-06-28T00:09:45.297Z,3.40
2023-06-28T00:12:11.973Z,3.22
2023-06-28T00:14:41.710Z,4.82
2023-06-28T00:17:13.169Z,3.70
2023-06-28T00:19:49.016Z,3.40
2023-06-28T00:22:18.665Z,3.60
2023-06-28T00:24:49.855Z,3.50
2023-06-28T00:27:16.545Z,3.50
2023-06-28T00:29:43.212Z,3.95
2023-06-28T00:32:10.339Z,3.30
2023-06-28T00:34:40.876Z,3.30
2023-06-28T00:40:12.608Z,3.45
2023-06-28T00:42:43.623Z,3.80
2023-06-28T00:45:27.374Z,3.75
2023-06-28T00:51:02.831Z,4.93
2023-06-28T00:53:32.729Z,4.47
2023-06-28T00:56:08.120Z,3.83
2023-06-28T00:58:35.670Z,4.13
2023-06-28T01:01:02.835Z,4.60
2023-06-28T01:03:29.714Z,4.13
2023-06-28T01:06:00.417Z,4.15
2023-06-28T01:08:29.040Z,4.65
2023-06-28T01:10:56.754Z,3.97
2023-06-28T01:13:29.578Z,3.92
2023-06-28T01:15:56.595Z,4.50
2023-06-28T01:18:26.822Z,3.85
2023-06-28T01:21:02.795Z,3.75
2023-06-28T01:23:33.082Z,4.43
2023-06-28T01:26:14.663Z,4.05
2023-06-28T01:28:48.782Z,3.75
2023-06-28T01:31:21.564Z,3.92
2023-06-28T01:33:51.638Z,4.13
2023-06-28T01:36:31.236Z,5.00
2023-06-28T01:38:59.730Z,4.90
2023-06-28T01:41:33.242Z,4.38
2023-06-28T01:44:09.296Z,4.07
2023-06-28T01:46:36.538Z,3.78
2023-06-28T01:49:03.716Z,3.58
2023-06-28T01:51:49.593Z,4.38
2023-06-28T01:54:17.495Z,5.10
2023-06-28T01:56:46.183Z,5.20
2023-06-28T01:59:18.162Z,4.85
2023-06-28T02:01:48.148Z,4.10
2023-06-28T02:04:14.995Z,4.40
2023-06-28T02:06:42.180Z,4.22
2023-06-28T02:09:12.124Z,3.97
2023-06-28T02:11:38.824Z,4.15
2023-06-28T02:14:11.573Z,3.80
2023-06-28T02:16:42.763Z,5.20
2023-06-28T02:19:16.826Z,4.88
2023-06-28T02:21:52.235Z,4.13
2023-06-28T02:24:18.961Z,5.15
2023-06-28T02:26:45.749Z,5.07
2023-06-28T02:29:12.586Z,5.18
2023-06-28T02:31:39.526Z,4.13
2023-06-28T02:34:16.785Z,4.20
2023-06-28T02:36:43.451Z,4.00
2023-06-28T02:39:15.814Z,3.42
2023-06-28T02:41:42.597Z,3.88
2023-06-28T02:44:12.560Z,4.43
2023-06-28T02:46:41.883Z,3.75
2023-06-28T02:49:11.710Z,4.65
2023-06-28T02:51:38.636Z,3.97
2023-06-28T02:54:11.629Z,4.25
2023-06-28T02:56:38.357Z,3.80
2023-06-28T02:59:10.737Z,4.15
2023-06-28T03:01:47.996Z,3.30
2023-06-28T03:04:14.763Z,3.50
2023-06-28T03:06:42.833Z,3.60
2023-06-28T03:09:15.587Z,3.60
2023-06-28T03:11:42.312Z,3.33
2023-06-28T03:14:16.435Z,3.47
2023-06-28T03:16:43.218Z,3.28
2023-06-28T03:19:17.731Z,3.80
2023-06-28T03:21:57.964Z,3.90
2023-06-28T03:24:33.997Z,2.55
2023-06-28T03:27:01.277Z,2.88
2023-06-28T03:29:31.156Z,3.45
2023-06-28T03:31:57.938Z,3.65
2023-06-28T03:34:30.389Z,2.90
2023-06-28T03:37:04.498Z,4.43
2023-06-28T03:39:32.264Z,4.50
2023-06-28T03:41:58.970Z,3.42
2023-06-28T03:44:25.951Z,3.47
2023-06-28T03:46:58.243Z,2.90
2023-06-28T03:49:29.902Z,4.00
2023-06-28T03:51:56.671Z,2.90
2023-06-28T03:54:23.456Z,3.78
2023-06-28T03:56:50.789Z,4.32
2023-06-28T03:59:17.594Z,3.30
2023-06-28T04:01:48.574Z,2.90
2023-06-28T04:04:24.289Z,3.10
2023-06-28T04:06:51.307Z,3.25
2023-06-28T04:09:18.185Z,3.13
2023-06-28T04:11:45.253Z,3.30
2023-06-28T04:14:12.147Z,2.92
2023-06-28T04:16:41.879Z,3.78
2023-06-28T04:19:10.994Z,3.20
2023-06-28T04:22:02.559Z,3.45
2023-06-28T04:24:32.813Z,3.10
2023-06-28T04:27:01.924Z,3.13
2023-06-28T04:29:29.197Z,3.78
2023-06-28T04:32:10.962Z,2.78
2023-06-28T04:34:39.890Z,3.15
2023-06-28T04:39:52.224Z,3.00
2023-06-28T04:42:19.084Z,4.15
2023-06-28T04:44:56.133Z,3.40
2023-06-28T04:47:24.490Z,3.20
2023-06-28T04:49:51.272Z,3.53
2023-06-28T04:52:22.271Z,2.88
2023-06-28T04:54:54.962Z,2.85
2023-06-28T04:57:24.739Z,3.65
2023-06-28T04:59:51.487Z,2.63
2023-06-28T05:02:26.074Z,2.72
2023-06-28T05:05:00.257Z,2.60
2023-06-28T05:10:09.527Z,2.28
2023-06-28T05:12:36.844Z,2.13
2023-06-28T05:15:06.700Z,2.28
2023-06-28T05:17:33.817Z,2.10
2023-06-28T05:20:08.170Z,2.30
2023-06-28T05:23:13.898Z,2.17
2023-06-28T05:25:42.890Z,2.63
2023-06-28T05:28:13.258Z,2.22
2023-06-28T05:30:44.712Z,1.88
2023-06-28T05:33:12.468Z,2.00
2023-06-28T05:35:47.291Z,2.33
2023-06-28T05:38:14.008Z,1.70
2023-06-28T05:40:41.289Z,1.70
2023-06-28T05:43:08.310Z,2.20
2023-06-28T05:45:37.474Z,1.60
2023-06-28T05:48:07.225Z,1.52
2023-06-28T05:50:39.375Z,1.58
2023-06-28T05:53:07.472Z,1.92
2023-06-28T05:55:39.371Z,2.08
2023-06-28T05:58:09.195Z,1.52
2023-06-28T06:00:38.783Z,1.55
2023-06-28T06:03:08.830Z,2.15
2023-06-28T06:05:35.583Z,1.60
2023-06-28T06:08:02.294Z,1.90
2023-06-28T06:10:36.325Z,2.55
2023-06-28T06:13:03.154Z,2.13
2023-06-28T06:15:29.783Z,1.30
2023-06-28T06:17:56.659Z,1.40
2023-06-28T06:20:23.860Z,1.65
2023-06-28T06:23:02.608Z,1.80
2023-06-28T06:25:29.432Z,1.52
2023-06-28T06:28:06.505Z,2.38
2023-06-28T06:30:36.618Z,1.45
2023-06-28T06:33:08.130Z,1.90
2023-06-28T06:35:35.184Z,1.50
2023-06-28T06:38:01.863Z,2.25
2023-06-28T06:40:49.881Z,1.60
2023-06-28T06:43:24.045Z,1.80
2023-06-28T06:45:57.919Z,1.70
2023-06-28T06:48:25.054Z,1.73
2023-06-28T06:50:51.852Z,1.90
2023-06-28T06:56:02.073Z,1.60
2023-06-28T06:58:29.409Z,2.00
2023-06-28T07:01:01.024Z,2.33
2023-06-28T07:03:27.713Z,2.05
2023-06-28T07:06:00.778Z,2.55
2023-06-28T07:08:28.119Z,1.30
2023-06-28T07:11:01.064Z,2.17
2023-06-28T07:13:27.856Z,1.40
2023-06-28T07:16:00.776Z,2.17
2023-06-28T07:18:27.804Z,1.52
2023-06-28T07:21:01.137Z,1.63
2023-06-28T07:23:27.874Z,1.40
2023-06-28T07:25:59.818Z,1.35
2023-06-28T07:28:26.503Z,1.30
2023-06-28T07:31:13.093Z,1.98
2023-06-28T07:33:42.234Z,1.80
2023-06-28T07:36:09.095Z,1.60
2023-06-28T07:38:36.710Z,1.25
2023-06-28T07:41:05.248Z,1.85
2023-06-28T07:43:35.627Z,1.25
2023-06-28T07:46:10.271Z,1.35
2023-06-28T07:48:37.197Z,1.27
2023-06-28T07:51:09.499Z,1.42
2023-06-28T07:53:36.125Z,1.30
2023-06-28T07:56:09.403Z,2.05
2023-06-28T07:58:42.304Z,1.30
2023-06-28T08:01:18.503Z,0.90
2023-06-28T08:03:45.809Z,1.83
2023-06-28T08:06:12.653Z,1.58
2023-06-28T08:08:42.182Z,1.38
2023-06-28T08:11:16.377Z,1.33
2023-06-28T08:13:43.126Z,1.55
2023-06-28T08:16:12.205Z,1.48
2023-06-28T08:18:41.940Z,1.42
2023-06-28T08:21:08.680Z,1.20
2023-06-28T08:23:38.342Z,1.52
2023-06-28T08:26:08.061Z,0.90
2023-06-28T08:28:43.526Z,1.05
2023-06-28T08:31:20.964Z,1.65
2023-06-28T08:33:59.107Z,1.35
2023-06-28T08:36:30.338Z,1.30
2023-06-28T08:38:56.981Z,1.10
2023-06-28T08:41:30.103Z,1.63
2023-06-28T08:44:01.241Z,1.45
2023-06-28T08:46:32.550Z,1.08
2023-06-28T08:49:10.788Z,1.80
2023-06-28T08:52:00.068Z,1.75
2023-06-28T08:54:31.265Z,1.52
2023-06-28T08:57:12.411Z,1.05
2023-06-28T08:59:40.553Z,1.77
2023-06-28T09:02:10.669Z,1.52
2023-06-28T09:04:40.473Z,1.23
2023-06-28T09:07:10.998Z,1.45
2023-06-28T09:09:42.575Z,1.40
2023-06-28T09:12:11.270Z,1.10
2023-06-28T09:14:37.970Z,1.38
2023-06-28T09:17:10.525Z,1.42
2023-06-28T09:19:40.690Z,0.90
2023-06-28T09:22:21.378Z,1.17
2023-06-28T09:25:13.068Z,1.30
2023-06-28T09:27:43.296Z,1.17
2023-06-28T09:30:21.920Z,1.20
2023-06-28T09:32:55.381Z,0.80
2023-06-28T09:35:23.331Z,0.90
2023-06-28T09:38:10.401Z,1.08
2023-06-28T09:40:37.537Z,0.90
2023-06-28T09:43:17.300Z,0.80
2023-06-28T09:45:45.247Z,1.02
2023-06-28T09:48:12.151Z,0.93
2023-06-28T09:50:49.662Z,0.90
2023-06-28T09:53:20.560Z,0.88
2023-06-28T09:55:51.884Z,1.10
2023-06-28T09:58:22.087Z,1.10
2023-06-28T10:00:55.433Z,1.25
2023-06-28T10:03:29.474Z,0.90
2023-06-28T10:06:01.232Z,1.20
2023-06-28T10:08:36.393Z,1.17
2023-06-28T10:11:19.602Z,0.95
2023-06-28T10:13:50.839Z,1.08
2023-06-28T10:16:34.054Z,1.30
2023-06-28T10:19:01.603Z,1.30
2023-06-28T10:21:33.044Z,1.10
2023-06-28T10:24:07.711Z,1.05
2023-06-28T10:26:36.290Z,0.93
2023-06-28T10:29:08.579Z,0.80
2023-06-28T10:31:36.043Z,1.10
2023-06-28T10:34:06.931Z,0.73
2023-06-28T10:36:34.316Z,0.90
2023-06-28T10:39:01.133Z,1.60
2023-06-28T10:41:35.699Z,0.85
2023-06-28T10:44:09.482Z,1.10
2023-06-28T10:46:38.198Z,1.27
2023-06-28T10:49:14.409Z,1.15
2023-06-28T10:51:50.462Z,0.80
2023-06-28T10:54:17.178Z,0.85
2023-06-28T10:56:58.480Z,0.77
2023-06-28T10:59:27.784Z,1.08
2023-06-28T11:01:59.102Z,1.15
2023-06-28T11:04:27.354Z,1.40
2023-06-28T11:07:25.391Z,0.85
2023-06-28T11:10:45.247Z,0.80
2023-06-28T11:14:18.857Z,0.77
2023-06-28T11:16:51.270Z,1.20
2023-06-28T11:19:43.328Z,0.82
2023-06-28T11:22:14.344Z,0.70
2023-06-28T11:25:12.452Z,1.55
2023-06-28T11:27:42.150Z,0.85
2023-06-28T11:30:10.411Z,1.25
2023-06-28T11:32:38.268Z,0.85
2023-06-28T11:35:13.857Z,0.90
2023-06-28T11:37:42.472Z,1.20
2023-06-28T11:40:12.143Z,1.00
2023-06-28T11:42:46.664Z,0.85
2023-06-28T11:45:21.518Z,1.15
2023-06-28T11:47:49.486Z,1.40
2023-06-28T11:50:20.113Z,0.93
2023-06-28T11:52:51.743Z,1.10
2023-06-28T11:55:36.789Z,0.93
2023-06-28T11:58:03.467Z,1.00
2023-06-28T12:00:39.917Z,0.90
2023-06-28T12:03:15.537Z,0.82
2023-06-28T12:05:57.557Z,1.33
2023-06-28T12:08:24.497Z,1.10
2023-06-28T12:11:00.544Z,1.10
2023-06-28T12:13:28.845Z,1.00
2023-06-28T12:16:22.559Z,1.10
2023-06-28T12:19:10.815Z,0.80
2023-06-28T12:21:49.006Z,1.13
2023-06-28T12:24:29.364Z,1.20
2023-06-28T12:27:04.687Z,1.30
2023-06-28T12:29:38.867Z,1.30
2023-06-28T12:32:48.582Z,1.00
2023-06-28T12:35:27.902Z,0.85
2023-06-28T12:38:03.149Z,1.60
2023-06-28T12:40:41.550Z,1.00
2023-06-28T12:43:19.057Z,1.27
2023-06-28T12:46:06.674Z,1.05
2023-06-28T12:48:39.024Z,1.23
2023-06-28T12:51:11.429Z,1.20
2023-06-28T12:53:41.122Z,1.20
2023-06-28T12:56:17.733Z,1.30
2023-06-28T12:58:47.314Z,1.08
2023-06-28T13:01:14.266Z,0.90
2023-06-28T13:03:43.900Z,1.48
2023-06-28T13:06:18.126Z,1.25
2023-06-28T13:08:44.813Z,1.70
2023-06-28T13:11:13.419Z,0.95
2023-06-28T13:13:40.410Z,1.02
2023-06-28T13:16:13.319Z,1.25
2023-06-28T13:18:46.105Z,0.88
2023-06-28T13:21:12.832Z,0.80
2023-06-28T13:23:51.804Z,1.67
2023-06-28T13:26:22.606Z,1.20
2023-06-28T13:28:55.945Z,1.05
2023-06-28T13:31:25.223Z,1.08
2023-06-28T13:33:52.115Z,1.20
2023-06-28T13:36:22.424Z,1.58
2023-06-28T13:38:51.885Z,1.40
2023-06-28T13:41:18.574Z,1.13
2023-06-28T13:43:45.334Z,0.80
2023-06-28T13:46:12.195Z,1.42
2023-06-28T13:48:44.886Z,1.40
2023-06-28T13:51:14.431Z,1.20
2023-06-28T13:53:43.953Z,1.80
2023-06-28T13:56:10.722Z,1.80
2023-06-28T13:58:43.414Z,1.75
2023-06-28T14:01:18.431Z,1.20
2023-06-28T14:03:47.052Z,1.27
2023-06-28T14:06:13.980Z,1.38
2023-06-28T14:08:46.995Z,1.70
2023-06-28T14:11:17.543Z,3.25
2023-06-28T14:13:55.496Z,3.50
2023-06-28T14:16:22.183Z,3.50
2023-06-28T14:18:51.070Z,3.10
2023-06-28T14:21:20.614Z,3.08
2023-06-28T14:23:47.258Z,3.10
2023-06-28T14:26:19.719Z,2.88
2023-06-28T14:28:46.579Z,2.70
2023-06-28T14:31:16.213Z,2.88
2023-06-28T14:33:49.238Z,2.30
2023-06-28T14:36:15.916Z,2.60
2023-06-28T14:39:07.255Z,2.10
2023-06-28T14:41:33.988Z,1.70
2023-06-28T14:44:06.877Z,2.60
2023-06-28T14:46:33.739Z,1.80
2023-06-28T14:49:08.886Z,1.80
2023-06-28T14:51:35.766Z,1.65
2023-06-28T14:54:09.909Z,1.05
2023-06-28T14:56:36.679Z,1.25
2023-06-28T14:59:11.495Z,1.13
2023-06-28T15:01:38.289Z,1.15
2023-06-28T15:04:08.154Z,1.35
2023-06-28T15:06:48.954Z,1.98
2023-06-28T15:09:18.583Z,2.28
2023-06-28T15:11:45.720Z,3.22
2023-06-28T15:14:17.872Z,4.35
2023-06-28T15:16:48.732Z,4.05
2023-06-28T15:19:15.734Z,3.70
2023-06-28T15:21:57.825Z,1.52
2023-06-28T15:24:27.052Z,1.30
2023-06-28T15:26:59.392Z,1.45
2023-06-28T15:29:28.172Z,0.90
2023-06-28T15:31:59.012Z,1.65
2023-06-28T15:34:28.599Z,2.15
2023-06-28T15:37:03.096Z,1.80
2023-06-28T15:39:29.775Z,1.10
2023-06-28T15:41:56.567Z,1.30
2023-06-28T15:44:23.335Z,1.13
2023-06-28T15:46:51.184Z,1.00
2023-06-28T15:49:21.012Z,1.40
2023-06-28T15:51:50.824Z,1.13
2023-06-28T15:54:23.311Z,1.13
2023-06-28T15:56:50.260Z,1.30
2023-06-28T15:59:17.023Z,1.10
2023-06-28T16:01:46.928Z,1.52
2023-06-28T16:04:19.649Z,1.20
2023-06-28T16:06:48.609Z,1.42
2023-06-28T16:09:15.659Z,1.42
2023-06-28T16:11:47.480Z,1.25
2023-06-28T16:14:14.608Z,1.17
2023-06-28T16:16:44.284Z,1.10
2023-06-28T16:19:12.369Z,1.48
2023-06-28T16:21:57.374Z,1.15
2023-06-28T16:24:27.175Z,1.30
2023-06-28T16:26:57.516Z,1.63
2023-06-28T16:29:29.753Z,1.10
2023-06-28T16:31:58.910Z,1.02
2023-06-28T16:34:25.611Z,1.00
2023-06-28T16:37:00.931Z,1.40
2023-06-28T16:39:30.642Z,1.23
2023-06-28T16:42:16.294Z,1.70
2023-06-28T16:44:54.484Z,0.98
2023-06-28T16:47:21.263Z,1.35
2023-06-28T16:49:55.439Z,1.40
2023-06-28T16:52:22.377Z,1.00
2023-06-28T16:55:02.521Z,1.35
2023-06-28T16:57:29.580Z,1.35
2023-06-28T17:00:09.775Z,1.33
2023-06-28T17:02:48.141Z,0.90
2023-06-28T17:05:18.428Z,1.40
2023-06-28T17:07:48.784Z,1.65
2023-06-28T17:10:29.936Z,1.13
2023-06-28T17:12:56.865Z,1.13
2023-06-28T17:15:26.304Z,1.00
2023-06-28T17:17:55.697Z,1.02
2023-06-28T17:20:22.526Z,1.10
2023-06-28T17:22:49.281Z,1.02
2023-06-28T17:25:21.254Z,1.00
2023-06-28T17:27:49.707Z,1.40
2023-06-28T17:30:23.225Z,1.30
2023-06-28T17:32:50.098Z,0.95
2023-06-28T17:35:17.224Z,1.20
2023-06-28T17:37:43.911Z,1.20
2023-06-28T17:40:13.318Z,1.10
2023-06-28T17:42:42.525Z,1.48
2023-06-28T17:45:10.583Z,1.35
2023-06-28T17:47:37.653Z,1.10
2023-06-28T17:50:08.125Z,1.70
2023-06-28T17:52:34.805Z,1.58
2023-06-28T17:55:07.759Z,1.10
2023-06-28T17:57:36.544Z,1.20
2023-06-28T18:00:07.268Z,1.08
2023-06-28T18:02:34.603Z,1.42
2023-06-28T18:05:01.597Z,0.95
2023-06-28T18:07:28.712Z,0.90
2023-06-28T18:10:01.930Z,1.15
2023-06-28T18:12:29.627Z,0.95
2023-06-28T18:14:59.293Z,1.02
2023-06-28T18:17:34.671Z,0.90
2023-06-28T18:20:01.531Z,0.80
2023-06-28T18:22:28.554Z,0.80
2023-06-28T18:25:01.094Z,1.15
2023-06-28T18:27:27.844Z,0.77
2023-06-28T18:30:10.838Z,0.90
2023-06-28T18:32:37.654Z,0.60
2023-06-28T18:35:10.711Z,0.80
2023-06-28T18:37:40.077Z,0.70
2023-06-28T18:40:10.549Z,0.60
2023-06-28T18:42:37.265Z,0.60
2023-06-28T18:45:13.753Z,0.98
2023-06-28T18:47:40.447Z,0.80
2023-06-28T18:50:07.681Z,0.70
2023-06-28T18:52:34.466Z,0.57
2023-06-28T18:55:01.542Z,0.85
2023-06-28T18:57:30.794Z,0.80
2023-06-28T18:59:57.520Z,0.73
2023-06-28T19:02:33.334Z,0.60
2023-06-28T19:05:03.405Z,0.70
2023-06-28T19:07:33.128Z,0.63
2023-06-28T19:10:10.886Z,0.80
2023-06-28T19:12:37.578Z,0.50
2023-06-28T19:15:08.452Z,0.60
2023-06-28T19:17:35.300Z,0.98
2023-06-28T19:20:02.312Z,0.63
2023-06-28T19:22:32.020Z,0.80
2023-06-28T19:24:58.743Z,0.77
2023-06-28T19:27:25.428Z,0.73
2023-06-28T19:29:56.266Z,0.80
2023-06-28T19:32:23.395Z,0.82
2023-06-28T19:34:59.049Z,0.68
2023-06-28T19:37:26.692Z,0.80
2023-06-28T19:39:55.947Z,0.60
2023-06-28T19:42:22.835Z,1.02
2023-06-28T19:44:56.093Z,0.82
2023-06-28T19:47:22.860Z,0.75
2023-06-28T19:49:55.444Z,0.80
2023-06-28T19:52:22.186Z,0.70
2023-06-28T19:54:55.379Z,0.85
2023-06-28T19:57:22.204Z,0.70
2023-06-28T19:59:55.066Z,0.98
2023-06-28T20:02:21.862Z,0.93
2023-06-28T20:04:57.870Z,1.05
2023-06-28T20:07:27.268Z,0.90
2023-06-28T20:10:02.334Z,0.88
2023-06-28T20:12:29.156Z,0.82
2023-06-28T20:15:09.806Z,1.02
2023-06-28T20:17:39.149Z,0.75
2023-06-28T20:20:14.184Z,1.00
2023-06-28T20:22:41.018Z,1.30
2023-06-28T20:25:29.559Z,1.08
2023-06-28T20:27:56.887Z,1.10
2023-06-28T20:30:23.952Z,0.90
2023-06-28T20:35:50.750Z,0.88
2023-06-28T20:38:26.987Z,1.60
2023-06-28T20:40:57.566Z,1.50
2023-06-28T20:43:24.930Z,1.00
2023-06-28T20:45:59.089Z,1.05
2023-06-28T20:48:27.949Z,1.00
2023-06-28T20:51:00.123Z,1.10
2023-06-28T20:53:27.208Z,1.30
2023-06-28T20:56:04.654Z,1.40
2023-06-28T20:58:32.070Z,1.17
2023-06-28T21:01:09.831Z,1.48
2023-06-28T21:03:36.681Z,1.63
2023-06-28T21:06:12.067Z,1.23
2023-06-28T21:08:46.862Z,1.40
2023-06-28T21:11:13.824Z,1.55
2023-06-28T21:13:43.720Z,1.48
2023-06-28T21:16:10.968Z,1.45
2023-06-28T21:18:37.715Z,1.60
2023-06-28T21:21:06.793Z,1.77
2023-06-28T21:23:38.616Z,1.50
2023-06-28T21:26:08.482Z,1.45
2023-06-28T21:28:35.488Z,1.33
2023-06-28T21:31:09.863Z,1.30
2023-06-28T21:33:39.416Z,1.55
2023-06-28T21:36:09.364Z,1.60
2023-06-28T21:38:36.139Z,1.60
2023-06-28T21:41:11.542Z,1.45
2023-06-28T21:43:41.305Z,1.40
2023-06-28T21:46:08.033Z,1.42
2023-06-28T21:48:40.834Z,1.58
2023-06-28T21:51:07.784Z,1.73
2023-06-28T21:53:37.634Z,1.40
2023-06-28T21:56:10.465Z,1.27
2023-06-28T21:58:37.477Z,1.43
2023-06-28T22:01:11.547Z,2.10
2023-06-28T22:03:41.413Z,3.00
2023-06-28T22:06:10.926Z,1.85
2023-06-28T22:08:38.547Z,2.35
2023-06-28T22:11:11.934Z,2.20
2023-06-28T22:13:42.455Z,2.17
2023-06-28T22:16:14.651Z,2.10
2023-06-28T22:18:43.628Z,2.40
2023-06-28T22:21:10.654Z,2.42
2023-06-28T22:23:37.945Z,2.50
2023-06-28T22:26:04.712Z,2.17
2023-06-28T22:28:31.715Z,1.80
2023-06-28T22:31:07.901Z,2.92
2023-06-28T22:33:34.623Z,2.17
2023-06-28T22:36:02.258Z,2.15
2023-06-28T22:38:32.000Z,2.47
2023-06-28T22:41:10.834Z,2.03
2023-06-28T22:43:37.516Z,2.88
2023-06-28T22:46:04.462Z,2.22
2023-06-28T22:48:32.903Z,2.08
2023-06-28T22:51:09.237Z,2.45
2023-06-28T22:53:36.328Z,1.88
2023-06-28T22:56:03.234Z,2.42
2023-06-28T22:58:30.275Z,2.30
2023-06-28T23:00:57.480Z,3.17
2023-06-28T23:03:25.329Z,3.00
2023-06-28T23:05:54.748Z,2.88
2023-06-28T23:08:21.668Z,3.00
2023-06-28T23:10:51.642Z,2.88
2023-06-28T23:13:23.730Z,3.00
2023-06-28T23:15:50.595Z,2.72
2023-06-28T23:18:20.800Z,3.45
2023-06-28T23:21:02.703Z,2.70
2023-06-28T23:23:32.926Z,2.83
2023-06-28T23:26:08.101Z,2.47
2023-06-28T23:28:34.878Z,2.83
2023-06-28T23:31:05.498Z,2.60
2023-06-28T23:33:32.226Z,2.78
2023-06-28T23:36:02.196Z,2.50
2023-06-28T23:38:29.019Z,2.83
2023-06-28T23:40:56.205Z,2.92
2023-06-28T23:43:22.917Z,2.72
2023-06-28T23:45:49.947Z,2.63
2023-06-28T23:48:25.958Z,3.10
2023-06-28T23:50:55.930Z,3.10
2023-06-28T23:53:24.614Z,3.33
2023-06-28T23:55:55.457Z,2.63
2023-06-28T23:58:22.640Z,3.97
